Latest Weather Observations for Hobart

IDT60801

Issued at 5:31 pm EDT Sunday 1 March 2015 (issued every 30 minutes, with the page automatically refreshed every 10 minutes)

About weather observations | Map of weather stations | Latest weather observations for TAS | Other Formats
Station Details ID: 094029 Name: HOBART (ELLERSLIE ROAD) Lat: -42.89 Lon: 147.33 Height: 50.5 m
Data from the previous 72 hours. | See also: Recent months at Hobart
Date/Time
EDT
Temp
°C
App
Temp
°C
Dew
Point
Rel
Hum
%
Delta-T
°C
Wind Press
QNH
hPa
Press
MSL
hPa
Rain
since 9 am
mm
Dir
 
Spd
km/h
Gust
km/h
Spd
kts
Gust
kts
01/05:30pm 16.9 11.9 4.7 44 5.8 SW 20 30 11 16 1012.7 1012.6 0.0
01/05:00pm 17.1 10.2 7.1 51 5.0 SW 33 46 18 25 1011.9 1011.8 0.0
01/04:30pm 17.7 10.2 6.4 47 5.6 SW 35 50 19 27 1011.5 1011.4 0.0
01/04:00pm 16.7 10.9 8.0 56 4.4 SW 28 44 15 24 1011.4 1011.3 0.0
01/03:37pm 17.1 10.9 7.8 54 4.7 SW 30 52 16 28 1011.3 1011.2 0.0
01/03:30pm 17.1 12.0 7.6 53 4.8 SW 24 41 13 22 1011.0 1010.9 0.0
01/03:00pm 16.1 12.3 8.9 62 3.7 SSW 19 30 10 16 1011.0 1010.9 0.0
01/02:30pm 18.0 12.6 7.8 51 5.2 SW 26 39 14 21 1010.2 1010.2 0.0
01/02:00pm 16.3 11.9 8.9 61 3.8 SW 22 33 12 18 1010.0 1010.0 0.0
01/01:30pm 17.0 12.6 9.1 59 4.1 SSW 22 33 12 18 1009.7 1009.7 0.0
01/01:00pm 18.1 13.7 6.7 47 5.7 WSW 19 32 10 17 1009.3 1009.3 0.0
01/12:30pm 18.5 14.2 7.0 47 5.8 SW 19 30 10 16 1009.1 1009.1 0.0
01/12:00pm 17.7 13.9 5.6 45 5.9 SW 15 26 8 14 1008.6 1008.6 0.0
01/11:30am 17.7 12.8 6.7 48 5.5 SW 22 35 12 19 1008.3 1008.3 0.0
01/11:00am 17.4 13.0 6.5 48 5.4 WSW 19 35 10 19 1008.0 1008.0 0.0
01/10:30am 17.2 11.3 6.0 47 5.5 WSW 26 43 14 23 1007.4 1007.3 0.0
01/10:01am 16.3 10.8 6.0 50 5.0 WSW 24 48 13 26 1006.6 1006.5 0.0
01/10:00am 16.4 11.0 6.2 51 5.0 WSW 24 43 13 23 1006.6 1006.5 0.0
01/09:30am 16.1 11.7 7.5 56 4.3 SW 20 33 11 18 1006.3 1006.2 0.0
01/09:00am 14.5 9.7 7.2 61 3.6 SW 22 35 12 19 1005.6 1005.5 1.6
01/08:30am 15.0 10.3 7.6 61 3.7 WSW 22 33 12 18 1004.8 1004.7 1.4
01/08:00am 15.4 11.2 8.3 62 3.6 SW 20 41 11 22 1004.3 1004.2 1.4
01/07:30am 14.1 10.7 9.0 71 2.6 WSW 17 33 9 18 1003.8 1003.7 1.4
01/07:00am 13.5 12.2 9.8 78 1.9 WSW 7 15 4 8 1003.2 1003.1 1.4
01/06:30am 14.0 10.2 9.1 72 2.5 NW 19 26 10 14 1002.4 1002.3 1.4
01/05:30am 15.3 11.5 7.5 59 3.9 NW 17 22 9 12 1001.3 1001.2 1.4
01/05:00am 15.6 11.7 6.9 56 4.3 N 17 28 9 15 1001.0 1000.9 1.4
01/04:30am 15.7 11.4 6.8 55 4.4 NNW 19 32 10 17 1000.9 1000.8 1.4
01/04:00am 16.0 9.9 6.5 53 4.7 NW 28 46 15 25 1000.3 1000.2 1.4
01/03:38am 16.2 10.1 6.5 52 4.8 NNW 28 46 15 25 1000.3 1000.2 1.4
01/03:30am 16.3 9.8 6.6 52 4.8 NNW 30 46 16 25 1000.3 1000.2 1.4
01/03:00am 16.6 10.6 7.0 53 4.8 NW 28 41 15 22 1000.3 1000.2 1.4
01/02:30am 17.1 11.3 6.4 49 5.3 NW 26 50 14 27 999.7 999.6 1.4
01/02:28am 17.1 10.9 6.1 48 5.4 NW 28 50 15 27 999.8 999.7 1.4
01/02:00am 16.9 12.5 7.6 54 4.7 NW 20 32 11 17 999.7 999.6 1.4
01/01:30am 17.5 13.7 7.7 52 5.0 NNW 17 28 9 15 999.6 999.5 1.4
01/01:04am 17.8 13.4 7.4 50 5.2 NW 20 48 11 26 999.4 999.3 1.4
01/01:00am 17.8 14.1 7.8 52 5.1 NNW 17 26 9 14 999.4 999.3 1.4
01/12:30am 18.2 14.7 8.8 54 4.9 NW 17 24 9 13 999.2 999.1 1.4
01/12:00am 18.9 15.5 9.3 53 5.1 NNW 17 24 9 13 998.8 998.7 1.4
 
Date/Time
EDT
Temp
°C
App
Temp
°C
Dew
Point
Rel
Hum
%
Delta-T
°C
Wind Press
QNH
hPa
Press
MSL
hPa
Rain
since 9 am
mm
Dir
 
Spd
km/h
Gust
km/h
Spd
kts
Gust
kts
28/11:30pm 19.4 15.8 9.7 53 5.2 NW 19 32 10 17 998.3 998.2 1.4
28/11:00pm 19.4 17.2 12.1 62 4.1 NW 15 20 8 11 998.2 998.1 1.4
28/10:30pm 20.3 17.1 11.9 58 4.7 NW 20 35 11 19 998.4 998.3 1.4
28/10:00pm 19.5 18.1 13.4 68 3.5 WNW 13 19 7 10 998.1 998.0 1.4
28/09:30pm 20.3 18.8 13.2 63 4.1 WNW 13 20 7 11 997.6 997.5 1.4
28/09:00pm 20.3 18.4 13.0 63 4.2 WNW 15 22 8 12 997.2 997.1 1.4
28/08:30pm 20.3 18.9 13.4 64 4.0 WNW 13 20 7 11 997.1 997.0 1.4
28/08:00pm 20.3 18.3 12.8 62 4.3 NW 15 24 8 13 996.9 996.8 1.4
28/07:30pm 19.8 20.6 12.4 62 4.2 CALM 0 0 0 0 996.3 996.2 1.4
28/07:00pm 20.5 19.9 12.2 59 4.7 NNE 7 11 4 6 996.4 996.3 1.4
28/06:30pm 20.5 19.0 11.8 57 4.9 NNE 11 13 6 7 996.8 996.7 1.4
28/06:00pm 20.1 18.5 11.5 57 4.8 N 11 19 6 10 997.0 996.9 1.4
28/05:30pm 19.8 18.1 11.1 57 4.8 N 11 20 6 11 997.1 997.0 1.4
28/05:00pm 19.5 16.6 10.9 57 4.7 N 17 22 9 12 997.5 997.4 1.4
28/04:30pm 19.8 16.8 10.7 55 5.0 N 17 24 9 13 997.8 997.7 1.4
28/04:00pm 19.7 16.7 10.8 56 4.9 N 17 24 9 13 998.2 998.1 1.4
28/03:30pm 19.4 15.9 10.2 55 4.9 N 19 28 10 15 999.0 998.9 1.4
28/03:00pm 19.6 14.8 10.2 54 5.1 N 26 35 14 19 999.4 999.3 1.4
28/02:30pm 19.2 16.4 11.2 60 4.4 N 17 28 9 15 1000.1 1000.0 1.4
28/02:00pm 18.8 17.0 12.0 64 3.8 N 13 22 7 12 1000.7 1000.6 1.4
28/01:30pm 17.9 16.2 12.3 70 3.1 N 13 19 7 10 1001.0 1000.9 1.4
28/01:00pm 16.2 15.9 12.8 80 1.9 N 6 11 3 6 1001.7 1001.6 1.4
28/12:30pm 15.4 14.0 12.3 82 1.7 NNE 11 17 6 9 1002.1 1002.0 1.4
28/12:00pm 15.6 13.5 11.3 75 2.3 N 13 19 7 10 1002.5 1002.4 1.0
28/11:30am 16.3 13.2 10.3 67 3.2 N 17 24 9 13 1002.5 1002.4 0.0
28/11:00am 16.7 12.3 8.8 59 4.1 N 22 30 12 16 1002.8 1002.7 0.0
28/10:30am 16.5 11.6 8.5 59 4.1 NNW 24 32 13 17 1003.1 1003.0 0.0
28/10:00am 16.2 11.7 8.4 60 4.0 NNW 22 32 12 17 1003.6 1003.5 0.0
28/09:30am 16.9 12.8 8.8 59 4.2 N 20 30 11 16 1004.2 1004.1 0.0
28/09:00am 15.8 12.2 8.3 61 3.8 NNW 17 26 9 14 1004.8 1004.7 0.2
28/08:30am 14.3 11.7 7.7 64 3.3 N 11 19 6 10 1005.1 1005.0 0.2
28/08:00am 14.0 11.3 7.3 64 3.3 N 11 15 6 8 1005.6 1005.5 0.2
28/07:30am 13.9 10.8 7.2 64 3.3 N 13 17 7 9 1005.9 1005.8 0.2
28/07:00am 13.7 10.6 7.2 65 3.2 N 13 20 7 11 1006.2 1006.1 0.2
28/06:30am 13.7 10.9 6.9 63 3.3 N 11 17 6 9 1006.7 1006.6 0.2
28/06:00am 13.4 11.1 7.5 67 2.9 NW 9 11 5 6 1007.3 1007.2 0.2
28/05:30am 13.5 11.1 7.2 65 3.1 NNW 9 13 5 7 1007.1 1007.0 0.2
28/05:00am 13.6 10.7 6.6 62 3.4 NNW 11 13 6 7 1007.8 1007.7 0.2
28/04:30am 13.5 10.6 6.4 62 3.4 NNW 11 17 6 9 1008.1 1008.0 0.2
28/04:00am 13.4 10.9 6.6 63 3.3 NNW 9 11 5 6 1008.5 1008.5 0.2
28/03:30am 13.2 11.8 7.3 67 2.9 WNW 4 7 2 4 1009.1 1009.1 0.2
28/03:00am 13.1 11.1 7.1 67 2.9 W 7 9 4 5 1009.2 1009.2 0.2
28/02:30am 13.1 11.1 6.9 66 3.0 SW 7 9 4 5 1009.5 1009.5 0.2
28/02:00am 13.0 11.1 6.8 66 3.0 SW 6 9 3 5 1009.8 1009.8 0.2
28/01:30am 13.1 11.2 6.9 66 3.0 SW 6 9 3 5 1010.2 1010.2 0.2
28/01:00am 13.1 10.7 6.9 66 3.0 SW 9 13 5 7 1010.5 1010.4 0.2
28/12:30am 13.3 10.1 6.7 64 3.2 SSW 13 19 7 10 1010.6 1010.5 0.2
28/12:00am 13.5 10.6 6.4 62 3.4 SSW 11 17 6 9 1011.0 1010.9 0.2
 
Date/Time
EDT
Temp
°C
App
Temp
°C
Dew
Point
Rel
Hum
%
Delta-T
°C
Wind Press
QNH
hPa
Press
MSL
hPa
Rain
since 9 am
mm
Dir
 
Spd
km/h
Gust
km/h
Spd
kts
Gust
kts
27/11:30pm 13.5 11.0 6.7 63 3.3 SSW 9 15 5 8 1011.3 1011.2 0.2
27/11:00pm 13.6 10.7 6.5 62 3.4 SSW 11 19 6 10 1011.2 1011.1 0.2
27/10:30pm 13.7 10.8 6.4 61 3.5 SSW 11 15 6 8 1011.3 1011.2 0.2
27/10:00pm 13.8 10.5 6.3 60 3.6 S 13 20 7 11 1011.3 1011.2 0.2
27/09:30pm 13.8 10.2 6.6 62 3.5 SSE 15 26 8 14 1011.2 1011.1 0.2
27/09:00pm 13.9 9.5 6.4 60 3.6 S 19 28 10 15 1010.8 1010.7 0.2
27/08:30pm 14.1 10.9 6.7 61 3.6 SSE 13 22 7 12 1010.6 1010.5 0.2
27/08:00pm 14.2 11.4 7.1 62 3.5 S 11 19 6 10 1010.5 1010.4 0.2
27/07:30pm 14.4 11.4 7.5 63 3.4 S 13 28 7 15 1009.9 1009.9 0.2
27/07:00pm 14.5 10.1 7.4 62 3.5 SSE 20 32 11 17 1009.8 1009.8 0.2
27/06:30pm 14.9 9.5 7.9 63 3.5 S 26 35 14 19 1009.8 1009.8 0.2
27/06:00pm 15.3 9.6 8.2 62 3.6 S 28 39 15 21 1009.9 1009.9 0.2
27/05:30pm 16.1 11.4 9.1 63 3.6 S 24 37 13 20 1009.5 1009.5 0.2
27/05:00pm 16.7 11.7 9.4 62 3.8 S 26 37 14 20 1008.9 1008.9 0.2
27/04:30pm 17.3 13.8 10.8 65 3.5 SSE 20 28 11 15 1008.6 1008.6 0.2
27/04:00pm 17.9 15.0 11.1 64 3.7 SE 17 22 9 12 1008.6 1008.6 0.2
27/03:30pm 18.0 15.0 10.6 62 4.0 SSE 17 24 9 13 1008.9 1008.9 0.2
27/03:00pm 17.4 14.3 10.3 63 3.8 ESE 17 22 9 12 1009.0 1009.0 0.2
27/02:30pm 17.6 14.5 10.3 62 3.9 SE 17 22 9 12 1009.0 1009.0 0.2
27/02:00pm 17.4 14.4 10.5 64 3.7 SE 17 24 9 13 1008.9 1008.9 0.2
27/01:30pm 17.1 14.7 10.1 63 3.7 SE 13 19 7 10 1009.3 1009.3 0.2
27/01:00pm 16.8 14.6 9.5 62 3.8 ESE 11 13 6 7 1009.6 1009.6 0.2
27/12:30pm 17.0 15.1 9.1 59 4.1 ENE 9 13 5 7 1009.6 1009.6 0.2
27/12:00pm 17.1 15.2 9.0 59 4.2 ENE 9 13 5 7 1009.7 1009.7 0.2
27/11:30am 16.5 15.0 9.0 61 3.9 SE 7 11 4 6 1010.1 1010.1 0.2
27/11:00am 16.7 15.3 9.0 60 4.0 E 6 11 3 6 1010.8 1010.7 0.2
27/10:30am 15.5 13.4 8.2 62 3.7 NE 9 15 5 8 1010.9 1010.8 0.2
27/10:00am 15.2 14.1 8.3 63 3.5 E 4 9 2 5 1011.0 1010.9 0.0
27/09:30am 14.4 12.4 8.5 67 3.0 WSW 9 13 5 7 1011.5 1011.4 0.0
27/09:00am 14.0 11.9 8.2 68 2.9 SW 9 11 5 6 1010.9 1010.8 0.6
27/08:30am 13.9 13.6 8.5 70 2.7 CALM 0 0 0 0 1010.7 1010.6 0.6
27/08:00am 13.6 12.0 8.2 70 2.7 S 6 9 3 5 1011.0 1010.9 0.6
27/07:30am 13.4 11.5 7.7 68 2.8 S 7 7 4 4 1011.4 1011.3 0.6
27/07:00am 13.2 12.7 7.9 70 2.6 CALM 0 6 0 3 1011.5 1011.4 0.6
27/06:30am 13.4 11.0 7.0 65 3.1 N 9 13 5 7 1010.8 1010.7 0.6
27/06:00am 13.5 11.3 6.2 61 3.5 WNW 7 11 4 6 1010.8 1010.7 0.6
27/05:30am 13.1 11.1 7.1 67 2.9 NW 7 11 4 6 1010.5 1010.4 0.6
27/05:00am 13.0 11.2 7.3 68 2.8 W 6 7 3 4 1010.4 1010.3 0.6
27/04:30am 12.9 11.1 7.1 68 2.8 W 6 7 3 4 1010.7 1010.6 0.6
27/04:00am 12.8 10.5 7.3 69 2.7 W 9 13 5 7 1010.8 1010.7 0.6
27/03:30am 13.2 11.1 6.5 64 3.2 W 7 11 4 6 1010.9 1010.8 0.6
27/03:00am 13.3 12.0 6.2 62 3.4 NNW 2 7 1 4 1011.5 1011.4 0.6
27/02:30am 13.2 11.0 6.1 62 3.4 W 7 11 4 6 1011.6 1011.5 0.6
27/02:00am 13.1 10.4 5.7 61 3.5 W 9 15 5 8 1011.7 1011.6 0.6
27/01:30am 13.2 10.5 5.5 59 3.6 WSW 9 13 5 7 1012.0 1011.9 0.6
27/01:00am 13.2 10.2 5.8 61 3.5 SW 11 15 6 8 1012.2 1012.1 0.6
27/12:30am 13.1 9.7 5.7 61 3.5 SW 13 15 7 8 1012.3 1012.2 0.6
27/12:00am 13.1 10.1 5.9 61 3.4 SW 11 15 6 8 1012.3 1012.2 0.6
 
Date/Time
EDT
Temp
°C
App
Temp
°C
Dew
Point
Rel
Hum
%
Delta-T
°C
Wind Press
QNH
hPa
Press
MSL
hPa
Rain
since 9 am
mm
Dir
 
Spd
km/h
Gust
km/h
Spd
kts
Gust
kts
26/11:30pm 13.2 10.2 5.8 61 3.5 SW 11 15 6 8 1012.7 1012.6 0.6
26/11:00pm 13.3 9.9 5.7 60 3.6 SSW 13 19 7 10 1012.7 1012.6 0.6
26/10:30pm 13.3 9.9 5.9 61 3.5 SSW 13 19 7 10 1012.7 1012.6 0.6
26/10:00pm 13.4 10.4 5.8 60 3.6 SSW 11 17 6 9 1012.6 1012.5 0.6
26/09:30pm 13.4 9.9 5.5 59 3.7 SSW 13 19 7 10 1012.2 1012.1 0.6
26/09:00pm 13.5 9.6 5.4 58 3.8 SSW 15 20 8 11 1011.9 1011.8 0.6
26/08:30pm 13.6 10.1 5.3 57 3.9 SSE 13 17 7 9 1011.3 1011.2 0.6
26/08:00pm 13.7 9.9 5.7 58 3.8 S 15 20 8 11 1010.8 1010.7 0.6
26/07:30pm 13.9 10.1 5.7 57 3.9 S 15 26 8 14 1010.5 1010.4 0.6
26/07:00pm 14.0 10.2 5.8 57 3.9 S 15 22 8 12 1010.1 1010.1 0.6
26/06:30pm 14.0 8.9 5.8 57 3.9 S 22 33 12 18 1009.7 1009.7 0.6
26/06:00pm 14.3 8.9 6.4 59 3.8 SSE 24 37 13 20 1009.4 1009.4 0.6

Other Formats:

Comma delimited format used in spreadsheet applications
http://www.bom.gov.au/fwo/IDT60801/IDT60801.94970.axf

JavaScript Object Notation format (JSON) in row-major order
http://www.bom.gov.au/fwo/IDT60801/IDT60801.94970.json